createdAt,value
2022-08-29T00:02:33.702Z,20.40
2022-08-29T00:05:40.012Z,20.30
2022-08-29T00:08:42.385Z,20.40
2022-08-29T00:11:46.413Z,20.30
2022-08-29T00:14:48.716Z,20.30
2022-08-29T00:17:50.756Z,20.30
2022-08-29T00:20:52.782Z,20.20
2022-08-29T00:23:54.857Z,20.20
2022-08-29T00:26:57.161Z,20.20
2022-08-29T00:29:59.672Z,20.20
2022-08-29T00:33:02.046Z,20.10
2022-08-29T00:36:04.522Z,20.00
2022-08-29T00:39:09.172Z,20.00
2022-08-29T00:42:13.714Z,19.90
2022-08-29T00:45:16.596Z,20.00
2022-08-29T00:48:20.017Z,19.90
2022-08-29T00:51:23.682Z,20.00
2022-08-29T00:54:26.664Z,19.90
2022-08-29T00:57:32.093Z,19.90
2022-08-29T01:00:34.399Z,19.90
2022-08-29T01:03:42.916Z,19.90
2022-08-29T01:06:45.693Z,19.80
2022-08-29T01:09:47.837Z,19.60
2022-08-29T01:12:49.750Z,19.70
2022-08-29T01:15:52.328Z,19.60
2022-08-29T01:18:59.350Z,19.50
2022-08-29T01:22:26.541Z,19.70
2022-08-29T01:25:33.075Z,19.60
2022-08-29T01:28:43.074Z,19.50
2022-08-29T01:31:55.882Z,19.50
2022-08-29T01:35:00.338Z,19.40
2022-08-29T01:38:02.340Z,19.50
2022-08-29T01:41:05.626Z,19.50
2022-08-29T01:44:26.294Z,19.40
2022-08-29T01:47:31.881Z,19.50
2022-08-29T01:50:33.901Z,19.40
2022-08-29T01:53:36.451Z,19.30
2022-08-29T01:56:44.696Z,19.40
2022-08-29T01:59:46.849Z,19.30
2022-08-29T02:02:48.927Z,19.40
2022-08-29T02:05:50.929Z,19.30
2022-08-29T02:08:53.233Z,19.20
2022-08-29T02:11:56.451Z,19.20
2022-08-29T02:14:58.619Z,19.20
2022-08-29T02:18:00.584Z,19.20
2022-08-29T02:21:03.025Z,19.20
2022-08-29T02:24:23.870Z,19.20
2022-08-29T02:27:27.682Z,19.20
2022-08-29T02:30:29.707Z,19.20
2022-08-29T02:33:32.467Z,19.10
2022-08-29T02:36:34.695Z,19.10
2022-08-29T02:39:36.735Z,19.10
2022-08-29T02:42:38.686Z,19.40
2022-08-29T02:45:42.859Z,18.90
2022-08-29T02:48:54.040Z,18.90
2022-08-29T02:52:03.617Z,18.90
2022-08-29T02:55:12.266Z,18.90
2022-08-29T02:58:16.115Z,18.90
2022-08-29T03:01:20.730Z,18.70
2022-08-29T03:04:23.087Z,18.70
2022-08-29T03:07:25.013Z,18.80
2022-08-29T03:10:27.194Z,18.70
2022-08-29T03:13:29.220Z,18.50
2022-08-29T03:16:32.275Z,18.60
2022-08-29T03:19:37.541Z,18.50
2022-08-29T03:22:39.588Z,18.50
2022-08-29T03:25:44.951Z,18.50
2022-08-29T03:28:47.126Z,18.40
2022-08-29T03:31:49.135Z,18.60
2022-08-29T03:34:51.206Z,18.50
2022-08-29T03:37:55.683Z,18.50
2022-08-29T03:41:00.143Z,18.50
2022-08-29T03:44:02.442Z,18.50
2022-08-29T03:47:05.556Z,18.50
2022-08-29T03:50:08.374Z,18.60
2022-08-29T03:53:10.509Z,18.50
2022-08-29T03:56:18.290Z,18.50
2022-08-29T03:59:21.146Z,18.50
2022-08-29T04:02:23.134Z,18.70
2022-08-29T04:05:25.635Z,18.40
2022-08-29T04:08:27.632Z,18.60
2022-08-29T04:11:29.618Z,18.40
2022-08-29T04:14:31.589Z,18.40
2022-08-29T04:17:33.902Z,18.40
2022-08-29T04:20:41.284Z,18.30
2022-08-29T04:23:45.879Z,18.40
2022-08-29T04:26:50.452Z,18.20
2022-08-29T04:29:52.432Z,18.00
2022-08-29T04:32:54.491Z,18.30
2022-08-29T04:35:56.664Z,18.10
2022-08-29T04:38:59.049Z,17.90
2022-08-29T04:42:01.375Z,18.00
2022-08-29T04:45:04.263Z,17.90
2022-08-29T04:48:07.097Z,17.90
2022-08-29T04:51:09.954Z,17.80
2022-08-29T04:54:11.967Z,17.90
2022-08-29T04:57:16.567Z,17.90
2022-08-29T05:00:22.525Z,17.90
2022-08-29T05:03:24.493Z,18.00
2022-08-29T05:06:29.133Z,18.10
2022-08-29T05:09:31.134Z,17.90
2022-08-29T05:12:33.978Z,18.00
2022-08-29T05:15:39.344Z,18.00
2022-08-29T05:18:41.924Z,18.00
2022-08-29T05:21:44.075Z,18.20
2022-08-29T05:24:46.363Z,18.20
2022-08-29T05:27:48.570Z,18.20
2022-08-29T05:30:50.640Z,18.20
2022-08-29T05:33:52.754Z,18.10
2022-08-29T05:36:54.712Z,18.30
2022-08-29T05:39:56.947Z,18.40
2022-08-29T05:42:58.808Z,18.60
2022-08-29T05:46:06.345Z,18.60
2022-08-29T05:49:08.464Z,18.50
2022-08-29T05:52:11.538Z,18.60
2022-08-29T05:55:14.122Z,18.60
2022-08-29T05:58:16.307Z,18.80
2022-08-29T06:01:29.842Z,19.00
2022-08-29T06:04:35.307Z,18.90
2022-08-29T06:07:37.498Z,19.10
2022-08-29T06:10:40.714Z,19.20
2022-08-29T06:13:43.005Z,19.60
2022-08-29T06:16:45.372Z,19.90
2022-08-29T06:19:51.125Z,20.10
2022-08-29T06:22:53.231Z,20.30
2022-08-29T06:25:58.939Z,20.60
2022-08-29T06:29:03.617Z,21.00
2022-08-29T06:32:05.905Z,21.50
2022-08-29T06:35:08.217Z,21.50
2022-08-29T06:38:13.868Z,22.00
2022-08-29T06:41:18.193Z,22.30
2022-08-29T06:44:20.535Z,22.50
2022-08-29T06:47:24.018Z,23.00
2022-08-29T06:50:26.079Z,23.00
2022-08-29T06:53:31.835Z,23.10
2022-08-29T06:56:36.699Z,23.50
2022-08-29T06:59:39.394Z,23.50
2022-08-29T07:02:41.696Z,23.90
2022-08-29T07:05:43.691Z,24.10
2022-08-29T07:08:46.796Z,24.90
2022-08-29T07:11:58.083Z,24.70
2022-08-29T07:15:00.474Z,24.80
2022-08-29T07:18:02.812Z,25.10
2022-08-29T07:21:11.890Z,24.90
2022-08-29T07:24:13.927Z,25.30
2022-08-29T07:27:15.992Z,25.40
2022-08-29T07:30:20.764Z,25.90
2022-08-29T07:33:22.941Z,26.30
2022-08-29T07:36:24.984Z,26.30
2022-08-29T07:39:27.035Z,26.30
2022-08-29T07:42:29.446Z,26.40
2022-08-29T07:45:32.391Z,26.60
2022-08-29T07:48:34.729Z,26.90
2022-08-29T07:51:36.990Z,27.30
2022-08-29T07:54:38.972Z,27.50
2022-08-29T07:57:41.018Z,27.40
2022-08-29T08:00:43.072Z,27.10
2022-08-29T08:03:46.215Z,26.90
2022-08-29T08:06:51.915Z,26.50
2022-08-29T08:09:54.182Z,26.10
2022-08-29T08:12:56.390Z,26.30
2022-08-29T08:15:58.832Z,26.40
2022-08-29T08:19:01.355Z,26.70
2022-08-29T08:22:03.443Z,26.90
2022-08-29T08:25:06.647Z,26.90
2022-08-29T08:28:09.155Z,27.00
2022-08-29T08:31:21.465Z,27.60
2022-08-29T08:34:26.586Z,27.60
2022-08-29T08:37:28.603Z,27.00
2022-08-29T08:40:31.610Z,27.20
2022-08-29T08:44:04.240Z,27.60
2022-08-29T08:47:07.974Z,27.20
2022-08-29T08:50:17.036Z,27.00
2022-08-29T08:53:32.963Z,27.50
2022-08-29T08:56:39.032Z,27.80
2022-08-29T08:59:44.984Z,27.50
2022-08-29T09:03:06.020Z,27.40
2022-08-29T09:06:38.890Z,28.00
2022-08-29T09:09:59.526Z,27.70
2022-08-29T09:13:40.115Z,27.70
2022-08-29T09:16:46.526Z,27.90
2022-08-29T09:19:49.194Z,28.40
2022-08-29T09:22:59.847Z,28.50
2022-08-29T09:26:02.287Z,28.10
2022-08-29T09:29:05.732Z,28.00
2022-08-29T09:32:16.516Z,28.00
2022-08-29T09:35:28.235Z,28.00
2022-08-29T09:38:30.232Z,28.60
2022-08-29T09:41:35.080Z,28.80
2022-08-29T09:44:37.837Z,28.10
2022-08-29T09:47:42.063Z,28.40
2022-08-29T09:50:44.806Z,28.30
2022-08-29T09:53:47.064Z,28.80
2022-08-29T09:56:54.658Z,29.10
2022-08-29T10:00:13.134Z,28.90
2022-08-29T10:03:24.156Z,28.90
2022-08-29T10:06:29.861Z,29.10
2022-08-29T10:09:31.882Z,29.80
2022-08-29T10:13:04.388Z,29.50
2022-08-29T10:16:19.070Z,29.80
2022-08-29T10:19:34.259Z,29.80
2022-08-29T10:23:01.135Z,29.80
2022-08-29T10:26:30.997Z,30.40
2022-08-29T10:29:57.207Z,30.50
2022-08-29T10:33:31.841Z,30.50
2022-08-29T10:36:38.881Z,30.40
2022-08-29T10:40:30.562Z,30.40
2022-08-29T10:43:46.815Z,30.00
2022-08-29T10:47:16.052Z,30.40
2022-08-29T11:03:37.049Z,30.70
2022-08-29T11:07:03.744Z,29.90
2022-08-29T11:10:23.271Z,29.70
2022-08-29T11:13:35.188Z,30.00
2022-08-29T11:16:46.588Z,30.10
2022-08-29T11:20:01.626Z,29.80
2022-08-29T11:23:12.894Z,29.50
2022-08-29T11:26:23.974Z,29.90
2022-08-29T11:29:34.986Z,29.90
2022-08-29T11:33:21.747Z,30.00
2022-08-29T11:36:29.678Z,30.30
2022-08-29T11:40:05.257Z,30.00
2022-08-29T11:43:12.433Z,30.20
2022-08-29T11:46:16.177Z,30.20
2022-08-29T11:49:30.434Z,30.00
2022-08-29T11:52:33.540Z,29.90
2022-08-29T11:55:38.941Z,30.10
2022-08-29T11:58:49.184Z,30.00
2022-08-29T12:01:54.046Z,30.00
2022-08-29T12:05:46.546Z,30.00
2022-08-29T12:09:13.919Z,30.10
2022-08-29T12:12:20.502Z,29.30
2022-08-29T12:15:31.353Z,29.50
2022-08-29T12:18:36.660Z,29.50
2022-08-29T12:21:38.817Z,29.70
2022-08-29T12:24:42.825Z,30.10
2022-08-29T12:28:13.025Z,30.00
2022-08-29T12:32:18.241Z,30.10
2022-08-29T12:35:37.550Z,29.90
2022-08-29T12:39:01.639Z,29.90
2022-08-29T12:42:30.668Z,30.00
2022-08-29T12:45:34.955Z,29.90
2022-08-29T12:48:43.191Z,29.90
2022-08-29T12:52:01.284Z,29.80
2022-08-29T12:55:29.003Z,30.00
2022-08-29T12:58:40.207Z,30.20
2022-08-29T13:01:48.146Z,30.00
2022-08-29T13:04:50.161Z,30.00
2022-08-29T13:08:03.036Z,29.90
2022-08-29T13:11:12.424Z,30.00
2022-08-29T13:14:14.418Z,29.90
2022-08-29T13:17:19.737Z,30.00
2022-08-29T13:20:46.899Z,30.00
2022-08-29T13:24:00.905Z,30.10
2022-08-29T13:27:04.925Z,30.10
2022-08-29T13:30:13.830Z,29.70
2022-08-29T13:33:35.449Z,29.90
2022-08-29T13:36:57.918Z,29.70
2022-08-29T13:40:31.401Z,29.50
2022-08-29T13:43:42.346Z,30.00
2022-08-29T13:46:44.547Z,29.90
2022-08-29T13:49:47.372Z,29.80
2022-08-29T13:52:52.297Z,30.00
2022-08-29T13:55:54.236Z,29.90
2022-08-29T13:58:57.192Z,29.50
2022-08-29T14:02:09.241Z,29.80
2022-08-29T14:05:12.591Z,29.90
2022-08-29T14:08:14.908Z,29.80
2022-08-29T14:11:17.626Z,29.90
2022-08-29T14:14:19.728Z,29.40
2022-08-29T14:17:24.043Z,29.50
2022-08-29T14:20:26.210Z,29.90
2022-08-29T14:23:28.499Z,29.90
2022-08-29T14:26:30.600Z,29.80
2022-08-29T14:29:34.041Z,29.70
2022-08-29T14:32:36.282Z,29.80
2022-08-29T14:35:42.374Z,29.70
2022-08-29T14:38:45.439Z,29.60
2022-08-29T14:41:47.438Z,29.30
2022-08-29T14:44:49.432Z,29.40
2022-08-29T14:47:51.499Z,29.50
2022-08-29T14:50:53.468Z,29.60
2022-08-29T14:53:55.643Z,29.50
2022-08-29T14:56:57.666Z,29.30
2022-08-29T14:59:59.768Z,29.50
2022-08-29T15:03:01.914Z,29.50
2022-08-29T15:06:08.378Z,29.50
2022-08-29T15:09:10.638Z,29.40
2022-08-29T15:12:14.409Z,29.40
2022-08-29T15:15:16.452Z,29.50
2022-08-29T15:18:47.987Z,29.70
2022-08-29T15:21:40.536Z,29.70
2022-08-29T15:24:42.582Z,29.70
2022-08-29T15:27:46.011Z,29.70
2022-08-29T15:30:49.161Z,29.70
2022-08-29T15:33:51.222Z,29.70
2022-08-29T15:36:54.200Z,29.80
2022-08-29T15:39:57.370Z,29.80
2022-08-29T15:42:59.401Z,29.70
2022-08-29T15:46:01.348Z,29.70
2022-08-29T15:49:07.139Z,29.70
2022-08-29T15:52:09.943Z,29.50
2022-08-29T15:55:14.614Z,29.60
2022-08-29T15:58:16.976Z,29.60
2022-08-29T16:01:19.355Z,29.50
2022-08-29T16:04:24.279Z,29.60
2022-08-29T16:07:28.909Z,29.50
2022-08-29T16:10:31.794Z,29.50
2022-08-29T16:13:33.869Z,29.50
2022-08-29T16:16:35.853Z,29.50
2022-08-29T16:19:44.623Z,29.40
2022-08-29T16:22:46.912Z,29.40
2022-08-29T16:25:49.025Z,29.30
2022-08-29T16:28:51.201Z,29.20
2022-08-29T16:31:58.154Z,29.30
2022-08-29T16:35:00.374Z,29.30
2022-08-29T16:38:03.439Z,29.20
2022-08-29T16:41:17.939Z,29.20
2022-08-29T16:44:20.036Z,29.10
2022-08-29T16:47:22.418Z,29.00
2022-08-29T16:50:24.777Z,28.90
2022-08-29T16:53:27.210Z,29.00
2022-08-29T16:56:29.318Z,29.00
2022-08-29T16:59:31.888Z,29.00
2022-08-29T17:02:35.189Z,28.90
2022-08-29T17:05:37.554Z,28.70
2022-08-29T17:08:39.835Z,28.70
2022-08-29T17:11:42.564Z,28.70
2022-08-29T17:14:44.719Z,28.70
2022-08-29T17:17:49.781Z,28.70
2022-08-29T17:20:54.017Z,28.50
2022-08-29T17:23:56.320Z,28.40
2022-08-29T17:26:58.468Z,28.40
2022-08-29T17:30:02.556Z,28.20
2022-08-29T17:33:04.833Z,28.00
2022-08-29T17:36:07.508Z,28.00
2022-08-29T17:39:10.210Z,28.00
2022-08-29T17:42:14.635Z,27.80
2022-08-29T17:45:17.576Z,27.70
2022-08-29T17:48:19.961Z,27.60
2022-08-29T17:51:22.013Z,27.60
2022-08-29T17:54:25.875Z,27.40
2022-08-29T17:57:29.707Z,27.20
2022-08-29T18:00:32.626Z,26.90
2022-08-29T18:03:34.702Z,26.80
2022-08-29T18:06:37.804Z,26.80
2022-08-29T18:09:40.219Z,26.70
2022-08-29T18:12:42.387Z,26.50
2022-08-29T18:15:44.576Z,26.50
2022-08-29T18:18:46.690Z,26.40
2022-08-29T18:21:52.783Z,26.40
2022-08-29T18:24:55.196Z,26.10
2022-08-29T18:27:57.679Z,26.00
2022-08-29T18:31:01.135Z,25.90
2022-08-29T18:34:03.279Z,25.90
2022-08-29T18:37:07.512Z,25.70
2022-08-29T18:40:15.778Z,25.80
2022-08-29T18:43:20.233Z,25.70
2022-08-29T18:46:22.443Z,25.70
2022-08-29T18:49:24.725Z,25.60
2022-08-29T18:52:33.337Z,25.50
2022-08-29T18:55:35.596Z,25.40
2022-08-29T18:58:39.141Z,25.50
2022-08-29T19:01:42.644Z,25.50
2022-08-29T19:04:44.824Z,25.50
2022-08-29T19:07:47.505Z,25.70
2022-08-29T19:10:50.204Z,25.80
2022-08-29T19:13:57.686Z,25.60
2022-08-29T19:16:59.784Z,25.50
2022-08-29T19:20:01.976Z,25.40
2022-08-29T19:23:06.664Z,25.50
2022-08-29T19:26:17.178Z,25.40
2022-08-29T19:29:19.216Z,25.40
2022-08-29T19:32:21.342Z,25.30
2022-08-29T19:35:24.600Z,25.10
2022-08-29T19:38:26.832Z,25.10
2022-08-29T19:41:29.123Z,25.20
2022-08-29T19:44:31.336Z,25.10
2022-08-29T19:47:37.386Z,25.00
2022-08-29T19:50:40.167Z,25.00
2022-08-29T19:53:43.065Z,24.70
2022-08-29T19:56:47.481Z,24.70
2022-08-29T19:59:49.466Z,24.50
2022-08-29T20:02:52.145Z,24.50
2022-08-29T20:05:54.310Z,24.40
2022-08-29T20:08:56.376Z,24.20
2022-08-29T20:11:58.543Z,24.10
2022-08-29T20:15:00.810Z,24.00
2022-08-29T20:18:03.563Z,24.00
2022-08-29T20:21:08.202Z,24.00
2022-08-29T20:24:10.919Z,23.90
2022-08-29T20:27:17.879Z,23.90
2022-08-29T20:30:23.439Z,23.80
2022-08-29T20:33:26.266Z,23.70
2022-08-29T20:36:28.839Z,23.70
2022-08-29T20:39:31.218Z,23.70
2022-08-29T20:42:33.312Z,23.60
2022-08-29T20:45:37.602Z,23.70
2022-08-29T20:48:40.347Z,23.70
2022-08-29T20:51:44.124Z,23.60
2022-08-29T20:54:47.039Z,23.60
2022-08-29T20:57:49.128Z,23.70
2022-08-29T21:00:51.659Z,23.70
2022-08-29T21:03:53.947Z,23.60
2022-08-29T21:06:57.806Z,23.60
2022-08-29T21:10:02.067Z,23.60
2022-08-29T21:13:05.418Z,23.50
2022-08-29T21:16:07.640Z,23.50
2022-08-29T21:19:10.460Z,23.50
2022-08-29T21:22:13.742Z,23.40
2022-08-29T21:25:15.783Z,23.30
2022-08-29T21:28:17.822Z,23.50
2022-08-29T21:31:20.113Z,23.40
2022-08-29T21:34:23.400Z,23.40
2022-08-29T21:37:25.794Z,23.40
2022-08-29T21:40:29.004Z,23.40
2022-08-29T21:43:31.229Z,23.50
2022-08-29T21:46:36.970Z,23.50
2022-08-29T21:49:39.607Z,23.50
2022-08-29T21:52:41.619Z,23.50
2022-08-29T21:55:43.907Z,23.40
2022-08-29T21:58:46.178Z,23.50
2022-08-29T22:01:52.596Z,23.50
2022-08-29T22:04:57.483Z,23.50
2022-08-29T22:07:59.635Z,23.40
2022-08-29T22:11:13.299Z,23.20
2022-08-29T22:14:15.736Z,23.10
2022-08-29T22:17:18.049Z,23.00
2022-08-29T22:20:20.282Z,23.00
2022-08-29T22:23:22.711Z,23.10
2022-08-29T22:26:25.055Z,23.10
2022-08-29T22:29:27.321Z,22.90
2022-08-29T22:32:32.305Z,22.90
2022-08-29T22:35:38.128Z,22.70
2022-08-29T22:38:42.501Z,22.70
2022-08-29T22:41:47.665Z,22.80
2022-08-29T22:45:05.137Z,22.70
2022-08-29T22:48:07.573Z,22.80
2022-08-29T22:51:19.452Z,22.80
2022-08-29T22:54:21.559Z,22.60
2022-08-29T22:57:23.607Z,22.50
2022-08-29T23:00:26.484Z,22.50
2022-08-29T23:03:28.832Z,22.50
2022-08-29T23:06:31.599Z,22.50
2022-08-29T23:09:35.513Z,22.40
2022-08-29T23:12:38.515Z,22.40
2022-08-29T23:15:40.628Z,22.30
2022-08-29T23:18:43.248Z,22.10
2022-08-29T23:21:46.087Z,22.10
2022-08-29T23:24:53.910Z,22.10
2022-08-29T23:28:00.581Z,22.10
2022-08-29T23:31:02.639Z,22.00
2022-08-29T23:34:04.963Z,22.00
2022-08-29T23:37:07.044Z,21.90
2022-08-29T23:40:09.158Z,21.90
2022-08-29T23:43:11.526Z,21.80
2022-08-29T23:46:16.550Z,21.70
2022-08-29T23:49:18.628Z,21.80
2022-08-29T23:52:20.742Z,21.70
2022-08-29T23:55:22.734Z,21.60
2022-08-29T23:58:24.824Z,21.60
